createdAt,value
2022-07-25T00:01:52.350Z,10.27
2022-07-25T00:04:19.813Z,10.43
2022-07-25T00:06:47.272Z,10.90
2022-07-25T00:09:15.149Z,10.40
2022-07-25T00:11:42.513Z,9.88
2022-07-25T00:14:10.234Z,11.00
2022-07-25T00:16:38.222Z,10.57
2022-07-25T00:19:05.792Z,11.05
2022-07-25T00:21:33.588Z,10.23
2022-07-25T00:24:00.921Z,10.82
2022-07-25T00:26:28.486Z,10.60
2022-07-25T00:28:55.818Z,10.95
2022-07-25T00:31:23.269Z,10.15
2022-07-25T00:33:50.722Z,11.18
2022-07-25T00:36:18.123Z,10.40
2022-07-25T00:38:45.402Z,10.52
2022-07-25T00:41:12.715Z,10.18
2022-07-25T00:43:43.408Z,10.80
2022-07-25T00:46:13.484Z,10.57
2022-07-25T00:48:41.110Z,10.98
2022-07-25T00:51:09.444Z,11.32
2022-07-25T00:53:37.559Z,11.43
2022-07-25T00:56:05.562Z,10.77
2022-07-25T00:58:33.161Z,11.48
2022-07-25T01:01:01.225Z,11.18
2022-07-25T01:03:28.523Z,11.45
2022-07-25T01:05:55.805Z,11.32
2022-07-25T01:08:23.454Z,10.70
2022-07-25T01:10:51.007Z,10.65
2022-07-25T01:13:18.553Z,10.35
2022-07-25T01:15:48.667Z,10.65
2022-07-25T01:18:16.043Z,11.23
2022-07-25T01:20:43.440Z,11.30
2022-07-25T01:23:10.761Z,11.25
2022-07-25T01:25:38.124Z,11.75
2022-07-25T01:28:05.601Z,11.95
2022-07-25T01:30:33.281Z,11.35
2022-07-25T01:33:00.723Z,11.27
2022-07-25T01:35:34.489Z,11.43
2022-07-25T01:38:01.921Z,10.90
2022-07-25T01:40:29.240Z,10.57
2022-07-25T01:42:56.520Z,10.15
2022-07-25T01:45:23.889Z,10.50
2022-07-25T01:47:51.421Z,11.55
2022-07-25T01:50:19.126Z,11.70
2022-07-25T01:52:47.168Z,10.38
2022-07-25T01:55:14.529Z,9.88
2022-07-25T01:57:48.657Z,11.35
2022-07-25T02:00:17.568Z,10.80
2022-07-25T02:02:45.420Z,11.68
2022-07-25T02:05:13.784Z,11.63
2022-07-25T02:07:41.465Z,10.98
2022-07-25T02:10:09.062Z,10.73
2022-07-25T02:12:36.563Z,11.13
2022-07-25T02:15:03.923Z,10.82
2022-07-25T02:17:31.411Z,11.23
2022-07-25T02:19:58.800Z,11.25
2022-07-25T02:22:26.165Z,10.65
2022-07-25T02:24:53.521Z,11.52
2022-07-25T02:27:20.881Z,10.82
2022-07-25T02:29:48.250Z,11.35
2022-07-25T02:32:19.241Z,11.63
2022-07-25T02:34:46.679Z,11.60
2022-07-25T02:37:14.201Z,11.45
2022-07-25T02:39:41.561Z,11.40
2022-07-25T02:42:08.890Z,11.05
2022-07-25T02:44:36.201Z,11.45
2022-07-25T02:47:03.601Z,11.38
2022-07-25T02:49:31.003Z,11.60
2022-07-25T02:51:58.441Z,11.02
2022-07-25T02:54:25.800Z,11.43
2022-07-25T02:56:53.166Z,10.27
2022-07-25T02:59:20.604Z,10.75
2022-07-25T03:01:48.188Z,11.75
2022-07-25T03:04:18.865Z,11.80
2022-07-25T03:06:47.243Z,11.23
2022-07-25T03:09:14.562Z,11.20
2022-07-25T03:11:41.883Z,12.18
2022-07-25T03:14:09.996Z,11.20
2022-07-25T03:16:37.720Z,11.80
2022-07-25T03:19:05.169Z,12.35
2022-07-25T03:21:32.521Z,10.98
2022-07-25T03:23:59.806Z,10.98
2022-07-25T03:26:27.163Z,10.13
2022-07-25T03:28:54.426Z,11.00
2022-07-25T03:31:22.019Z,10.13
2022-07-25T03:33:49.368Z,10.70
2022-07-25T03:36:19.786Z,11.98
2022-07-25T03:38:47.094Z,11.70
2022-07-25T03:41:14.407Z,11.40
2022-07-25T03:43:41.754Z,11.48
2022-07-25T03:46:09.226Z,11.90
2022-07-25T03:48:36.762Z,10.68
2022-07-25T03:51:07.132Z,10.80
2022-07-25T03:53:54.842Z,10.80
2022-07-25T03:56:22.399Z,10.90
2022-07-25T03:58:49.818Z,11.15
2022-07-25T04:01:17.275Z,10.38
2022-07-25T04:03:46.678Z,11.00
2022-07-25T04:06:14.098Z,11.77
2022-07-25T04:08:41.612Z,11.77
2022-07-25T04:11:09.009Z,10.65
2022-07-25T04:13:36.408Z,11.52
2022-07-25T04:16:03.795Z,11.95
2022-07-25T04:18:32.163Z,11.77
2022-07-25T04:21:01.808Z,11.10
2022-07-25T04:23:29.170Z,12.35
2022-07-25T04:25:57.092Z,11.60
2022-07-25T04:28:25.328Z,11.40
2022-07-25T04:30:52.690Z,11.45
2022-07-25T04:33:20.515Z,11.77
2022-07-25T04:35:48.450Z,10.75
2022-07-25T04:38:15.888Z,10.85
2022-07-25T04:40:43.253Z,11.57
2022-07-25T04:43:10.808Z,11.27
2022-07-25T04:45:38.334Z,11.43
2022-07-25T04:48:06.329Z,11.38
2022-07-25T04:50:33.779Z,11.85
2022-07-25T04:53:01.224Z,11.10
2022-07-25T04:55:28.608Z,10.55
2022-07-25T04:57:55.969Z,11.10
2022-07-25T05:00:23.969Z,11.43
2022-07-25T05:02:51.894Z,11.32
2022-07-25T05:05:21.367Z,11.63
2022-07-25T05:07:50.083Z,12.07
2022-07-25T05:10:17.650Z,11.77
2022-07-25T05:12:45.011Z,11.95
2022-07-25T05:15:12.689Z,11.13
2022-07-25T05:17:40.213Z,11.18
2022-07-25T05:20:07.931Z,11.50
2022-07-25T05:22:35.371Z,12.07
2022-07-25T05:25:02.781Z,11.13
2022-07-25T05:27:30.172Z,10.85
2022-07-25T05:29:57.733Z,10.95
2022-07-25T05:32:25.156Z,11.55
2022-07-25T05:34:52.573Z,11.65
2022-07-25T05:37:20.172Z,10.77
2022-07-25T05:39:47.812Z,12.40
2022-07-25T05:42:15.294Z,11.07
2022-07-25T05:44:42.679Z,11.90
2022-07-25T05:47:11.282Z,12.23
2022-07-25T05:49:38.919Z,11.88
2022-07-25T05:52:12.467Z,11.63
2022-07-25T05:54:40.605Z,11.60
2022-07-25T05:57:08.283Z,11.93
2022-07-25T05:59:35.718Z,12.15
2022-07-25T06:02:03.365Z,12.60
2022-07-25T06:04:30.919Z,12.25
2022-07-25T06:06:58.438Z,12.10
2022-07-25T06:09:26.167Z,11.90
2022-07-25T06:11:58.090Z,12.45
2022-07-25T06:14:27.567Z,11.68
2022-07-25T06:16:56.249Z,12.10
2022-07-25T06:19:23.809Z,11.35
2022-07-25T06:21:51.247Z,11.55
2022-07-25T06:24:21.008Z,11.85
2022-07-25T06:26:48.395Z,12.25
2022-07-25T06:29:15.767Z,12.38
2022-07-25T06:31:46.398Z,11.00
2022-07-25T06:34:14.769Z,11.90
2022-07-25T06:36:42.168Z,11.35
2022-07-25T06:39:09.530Z,11.18
2022-07-25T06:41:37.756Z,10.95
2022-07-25T06:44:05.514Z,11.02
2022-07-25T06:46:33.284Z,11.20
2022-07-25T06:49:00.772Z,11.23
2022-07-25T06:51:28.240Z,11.07
2022-07-25T06:53:56.828Z,11.52
2022-07-25T06:56:24.310Z,10.95
2022-07-25T06:58:53.352Z,11.60
2022-07-25T07:01:20.956Z,11.40
2022-07-25T07:03:48.666Z,10.43
2022-07-25T07:06:16.280Z,11.85
2022-07-25T07:08:43.808Z,11.25
2022-07-25T07:11:11.127Z,11.00
2022-07-25T07:13:38.614Z,11.60
2022-07-25T07:16:06.288Z,10.80
2022-07-25T07:18:33.705Z,12.15
2022-07-25T07:21:01.168Z,11.45
2022-07-25T07:23:29.145Z,11.13
2022-07-25T07:25:56.712Z,11.18
2022-07-25T07:28:24.454Z,11.57
2022-07-25T07:31:15.083Z,10.65
2022-07-25T07:33:39.645Z,10.70
2022-07-25T07:36:07.375Z,10.80
2022-07-25T07:38:34.894Z,10.80
2022-07-25T07:41:02.291Z,10.70
2022-07-25T07:43:32.035Z,11.10
2022-07-25T07:46:02.966Z,10.93
2022-07-25T07:48:31.322Z,10.80
2022-07-25T07:50:59.410Z,10.30
2022-07-25T07:54:05.407Z,10.77
2022-07-25T07:56:32.784Z,11.38
2022-07-25T07:59:01.483Z,10.88
2022-07-25T08:01:28.991Z,11.68
2022-07-25T08:03:56.346Z,10.65
2022-07-25T08:06:23.940Z,10.15
2022-07-25T08:08:51.494Z,10.63
2022-07-25T08:11:18.925Z,11.05
2022-07-25T08:13:46.824Z,10.70
2022-07-25T08:16:14.468Z,10.80
2022-07-25T08:18:41.957Z,10.18
2022-07-25T08:21:09.494Z,10.77
2022-07-25T08:23:39.167Z,10.98
2022-07-25T08:26:07.638Z,10.40
2022-07-25T08:28:35.140Z,10.73
2022-07-25T08:31:02.629Z,10.32
2022-07-25T08:33:30.060Z,10.10
2022-07-25T08:35:59.062Z,10.00
2022-07-25T08:38:27.652Z,10.60
2022-07-25T08:40:56.644Z,10.10
2022-07-25T08:43:24.093Z,10.23
2022-07-25T08:45:52.614Z,9.85
2022-07-25T08:48:24.947Z,10.45
2022-07-25T08:50:52.694Z,10.70
2022-07-25T08:53:36.279Z,10.60
2022-07-25T08:56:15.968Z,10.35
2022-07-25T08:58:46.374Z,10.80
2022-07-25T09:01:14.969Z,10.32
2022-07-25T09:03:43.326Z,10.90
2022-07-25T09:06:21.820Z,9.57
2022-07-25T09:09:08.732Z,10.27
2022-07-25T09:11:37.212Z,10.20
2022-07-25T09:14:07.434Z,10.38
2022-07-25T09:16:40.297Z,9.98
2022-07-25T09:19:10.717Z,10.52
2022-07-25T09:21:39.954Z,10.23
2022-07-25T09:24:18.821Z,11.10
2022-07-25T09:26:56.588Z,11.20
2022-07-25T09:29:34.156Z,9.55
2022-07-25T09:32:02.457Z,9.05
2022-07-25T09:34:48.630Z,8.63
2022-07-25T09:37:17.672Z,8.07
2022-07-25T09:39:47.291Z,7.78
2022-07-25T09:42:15.873Z,8.02
2022-07-25T09:44:43.412Z,7.38
2022-07-25T09:47:11.582Z,6.57
2022-07-25T09:49:42.937Z,7.13
2022-07-25T09:52:10.883Z,7.25
2022-07-25T09:54:39.327Z,6.63
2022-07-25T09:57:07.037Z,7.00
2022-07-25T09:59:35.134Z,6.88
2022-07-25T10:02:26.589Z,6.72
2022-07-25T10:05:12.453Z,7.30
2022-07-25T10:07:42.541Z,6.20
2022-07-25T10:10:19.613Z,6.60
2022-07-25T10:13:06.513Z,6.75
2022-07-25T10:15:44.622Z,6.90
2022-07-25T10:18:12.500Z,7.22
2022-07-25T10:20:39.898Z,6.97
2022-07-25T10:23:25.019Z,6.60
2022-07-25T10:26:16.369Z,6.80
2022-07-25T10:28:51.455Z,6.82
2022-07-25T10:31:24.575Z,5.97
2022-07-25T10:33:54.004Z,6.35
2022-07-25T10:36:22.644Z,6.82
2022-07-25T10:38:53.242Z,5.82
2022-07-25T10:41:26.123Z,6.65
2022-07-25T10:43:56.810Z,6.35
2022-07-25T10:46:27.367Z,6.10
2022-07-25T10:48:58.641Z,5.50
2022-07-25T10:51:31.050Z,5.93
2022-07-25T10:53:58.568Z,5.97
2022-07-25T10:56:29.365Z,5.90
2022-07-25T10:58:59.295Z,6.03
2022-07-25T11:01:27.656Z,5.38
2022-07-25T11:04:00.419Z,5.90
2022-07-25T11:06:36.684Z,5.63
2022-07-25T11:09:25.094Z,5.35
2022-07-25T11:11:57.281Z,5.50
2022-07-25T11:14:33.470Z,5.80
2022-07-25T11:17:20.682Z,5.03
2022-07-25T11:20:05.967Z,5.13
2022-07-25T11:22:34.548Z,5.60
2022-07-25T11:25:09.806Z,4.88
2022-07-25T11:27:36.892Z,5.32
2022-07-25T11:30:15.123Z,4.88
2022-07-25T11:32:47.612Z,5.10
2022-07-25T11:35:15.639Z,4.60
2022-07-25T11:37:44.554Z,4.95
2022-07-25T11:40:11.883Z,4.50
2022-07-25T11:42:50.079Z,4.25
2022-07-25T11:45:27.243Z,3.72
2022-07-25T11:48:14.645Z,3.63
2022-07-25T11:50:44.124Z,4.40
2022-07-25T11:53:14.840Z,3.78
2022-07-25T11:55:43.657Z,4.00
2022-07-25T11:58:15.693Z,3.50
2022-07-25T12:00:44.929Z,3.25
2022-07-25T12:03:19.525Z,3.83
2022-07-25T12:05:48.916Z,3.15
2022-07-25T12:08:21.470Z,2.70
2022-07-25T12:10:51.512Z,2.70
2022-07-25T12:13:26.855Z,3.17
2022-07-25T12:15:55.763Z,3.17
2022-07-25T12:18:22.811Z,2.92
2022-07-25T12:20:49.883Z,3.10
2022-07-25T12:23:17.203Z,2.90
2022-07-25T12:25:46.626Z,2.85
2022-07-25T12:28:14.490Z,2.55
2022-07-25T12:30:43.398Z,3.28
2022-07-25T12:33:11.991Z,3.17
2022-07-25T12:35:41.165Z,3.03
2022-07-25T12:38:09.096Z,3.20
2022-07-25T12:40:36.095Z,3.30
2022-07-25T12:43:04.081Z,3.90
2022-07-25T12:45:31.236Z,3.97
2022-07-25T12:47:58.417Z,4.18
2022-07-25T12:50:26.176Z,4.13
2022-07-25T12:52:53.472Z,4.05
2022-07-25T12:55:21.349Z,4.60
2022-07-25T12:57:49.147Z,3.70
2022-07-25T13:00:18.277Z,3.88
2022-07-25T13:02:45.429Z,4.07
2022-07-25T13:05:13.069Z,4.43
2022-07-25T13:07:40.350Z,4.45
2022-07-25T13:10:08.208Z,4.07
2022-07-25T13:12:35.403Z,4.40
2022-07-25T13:15:03.051Z,4.10
2022-07-25T13:17:31.366Z,4.90
2022-07-25T13:19:58.453Z,4.50
2022-07-25T13:22:26.251Z,4.35
2022-07-25T13:24:54.003Z,4.57
2022-07-25T13:27:22.937Z,4.75
2022-07-25T13:29:56.269Z,4.85
2022-07-25T13:32:24.463Z,4.13
2022-07-25T13:34:51.528Z,4.68
2022-07-25T13:37:18.782Z,4.90
2022-07-25T13:39:45.911Z,5.00
2022-07-25T13:42:12.930Z,5.32
2022-07-25T13:44:39.943Z,4.72
2022-07-25T13:47:07.186Z,4.95
2022-07-25T13:49:34.302Z,5.38
2022-07-25T13:52:01.356Z,5.13
2022-07-25T13:54:28.353Z,5.70
2022-07-25T13:56:55.401Z,5.20
2022-07-25T13:59:22.520Z,4.78
2022-07-25T14:01:50.473Z,4.32
2022-07-25T14:04:17.958Z,5.53
2022-07-25T14:06:45.258Z,5.18
2022-07-25T14:09:12.260Z,5.38
2022-07-25T14:11:39.323Z,4.95
2022-07-25T14:14:06.547Z,5.28
2022-07-25T14:16:34.571Z,4.75
2022-07-25T14:19:02.353Z,4.75
2022-07-25T14:21:30.057Z,4.80
2022-07-25T14:23:57.095Z,4.72
2022-07-25T14:26:24.384Z,4.95
2022-07-25T14:28:51.432Z,4.72
2022-07-25T14:31:18.541Z,4.10
2022-07-25T14:33:45.685Z,3.88
2022-07-25T14:36:13.025Z,5.43
2022-07-25T14:38:40.075Z,5.07
2022-07-25T14:41:12.366Z,5.43
2022-07-25T14:43:40.940Z,5.60
2022-07-25T14:46:09.228Z,4.95
2022-07-25T14:48:37.829Z,4.72
2022-07-25T14:51:06.336Z,4.60
2022-07-25T14:53:34.681Z,5.07
2022-07-25T14:56:04.842Z,5.20
2022-07-25T14:58:33.653Z,5.05
2022-07-25T15:01:01.008Z,5.22
2022-07-25T15:03:28.219Z,5.40
2022-07-25T15:05:55.294Z,5.07
2022-07-25T15:08:22.972Z,5.07
2022-07-25T15:10:49.925Z,5.07
2022-07-25T15:13:32.869Z,5.53
2022-07-25T15:16:01.099Z,4.35
2022-07-25T15:18:29.130Z,4.68
2022-07-25T15:20:56.281Z,5.20
2022-07-25T15:23:30.222Z,5.22
2022-07-25T15:26:03.152Z,4.70
2022-07-25T15:28:35.635Z,5.60
2022-07-25T15:31:03.125Z,5.22
2022-07-25T15:33:30.604Z,4.68
2022-07-25T15:35:57.759Z,5.45
2022-07-25T15:38:24.771Z,4.95
2022-07-25T15:40:52.187Z,5.07
2022-07-25T15:43:19.201Z,4.65
2022-07-25T15:45:46.881Z,4.68
2022-07-25T15:48:16.366Z,4.90
2022-07-25T15:50:46.710Z,4.97
2022-07-25T15:53:14.376Z,5.50
2022-07-25T15:55:42.783Z,4.80
2022-07-25T15:58:10.945Z,4.70
2022-07-25T16:00:39.231Z,5.05
2022-07-25T16:03:07.324Z,4.90
2022-07-25T16:05:34.839Z,5.43
2022-07-25T16:08:02.291Z,4.63
2022-07-25T16:10:31.000Z,4.78
2022-07-25T16:12:58.159Z,5.28
2022-07-25T16:15:25.474Z,4.80
2022-07-25T16:18:01.670Z,5.30
2022-07-25T16:20:29.088Z,5.07
2022-07-25T16:22:57.898Z,4.63
2022-07-25T16:25:26.092Z,5.57
2022-07-25T16:27:53.641Z,5.25
2022-07-25T16:30:21.169Z,4.90
2022-07-25T16:32:48.252Z,4.75
2022-07-25T16:35:15.521Z,4.53
2022-07-25T16:37:42.959Z,4.72
2022-07-25T16:40:10.720Z,5.72
2022-07-25T16:42:38.005Z,5.78
2022-07-25T16:45:06.359Z,5.25
2022-07-25T16:47:33.482Z,5.43
2022-07-25T16:50:00.842Z,4.90
2022-07-25T16:52:28.244Z,5.13
2022-07-25T16:54:55.607Z,4.97
2022-07-25T16:57:24.776Z,4.07
2022-07-25T16:59:53.772Z,4.22
2022-07-25T17:02:27.637Z,4.43
2022-07-25T17:04:56.931Z,4.03
2022-07-25T17:07:24.679Z,4.50
2022-07-25T17:09:52.360Z,4.60
2022-07-25T17:12:19.880Z,4.53
2022-07-25T17:14:47.355Z,3.83
2022-07-25T17:17:14.729Z,4.03
2022-07-25T17:19:42.210Z,4.07
2022-07-25T17:22:10.495Z,3.75
2022-07-25T17:24:41.375Z,3.53
2022-07-25T17:27:09.329Z,4.00
2022-07-25T17:29:37.493Z,3.95
2022-07-25T17:32:07.021Z,3.58
2022-07-25T17:34:34.643Z,3.78
2022-07-25T17:37:03.185Z,3.80
2022-07-25T17:39:34.252Z,4.18
2022-07-25T17:42:02.372Z,3.65
2022-07-25T17:44:29.775Z,3.40
2022-07-25T17:46:57.218Z,3.92
2022-07-25T17:49:24.945Z,3.75
2022-07-25T17:51:52.365Z,3.97
2022-07-25T17:54:19.762Z,4.88
2022-07-25T17:56:47.202Z,3.90
2022-07-25T17:59:14.692Z,4.25
2022-07-25T18:01:42.090Z,6.10
2022-07-25T18:04:10.087Z,10.63
2022-07-25T18:06:37.688Z,12.68
2022-07-25T18:09:05.285Z,8.48
2022-07-25T18:11:33.363Z,7.32
2022-07-25T18:14:00.974Z,3.83
2022-07-25T18:16:28.988Z,3.80
2022-07-25T18:18:56.521Z,4.20
2022-07-25T18:21:24.642Z,3.38
2022-07-25T18:23:52.663Z,3.63
2022-07-25T18:26:21.988Z,4.20
2022-07-25T18:28:49.447Z,3.78
2022-07-25T18:31:16.923Z,3.70
2022-07-25T18:33:44.482Z,4.20
2022-07-25T18:36:12.267Z,4.57
2022-07-25T18:38:39.950Z,3.95
2022-07-25T18:43:56.523Z,3.40
2022-07-25T18:46:24.464Z,4.13
2022-07-25T18:48:52.254Z,4.35
2022-07-25T18:51:21.193Z,5.18
2022-07-25T18:53:49.763Z,4.10
2022-07-25T18:56:17.699Z,3.80
2022-07-25T18:58:45.254Z,3.45
2022-07-25T19:01:13.027Z,3.95
2022-07-25T19:03:40.852Z,4.10
2022-07-25T19:06:09.479Z,4.03
2022-07-25T19:08:36.961Z,4.13
2022-07-25T19:11:04.582Z,5.28
2022-07-25T19:13:48.957Z,4.20
2022-07-25T19:16:17.365Z,3.65
2022-07-25T19:18:45.362Z,3.80
2022-07-25T19:21:12.880Z,3.55
2022-07-25T19:23:40.282Z,4.32
2022-07-25T19:26:07.761Z,3.63
2022-07-25T19:28:36.364Z,3.72
2022-07-25T19:31:04.008Z,4.63
2022-07-25T19:33:34.755Z,3.90
2022-07-25T19:36:04.347Z,3.83
2022-07-25T19:38:31.933Z,3.53
2022-07-25T19:40:59.563Z,4.03
2022-07-25T19:43:27.006Z,3.80
2022-07-25T19:45:54.510Z,3.85
2022-07-25T19:48:24.186Z,4.28
2022-07-25T19:50:52.249Z,3.95
2022-07-25T19:53:22.041Z,4.20
2022-07-25T19:55:51.649Z,4.25
2022-07-25T19:58:19.256Z,4.60
2022-07-25T20:00:46.763Z,3.70
2022-07-25T20:03:14.207Z,3.78
2022-07-25T20:05:42.196Z,4.43
2022-07-25T20:08:09.522Z,4.88
2022-07-25T20:10:36.926Z,4.38
2022-07-25T20:13:04.449Z,3.92
2022-07-25T20:15:31.807Z,4.28
2022-07-25T20:17:59.561Z,4.57
2022-07-25T20:20:27.080Z,4.28
2022-07-25T20:22:54.867Z,4.18
2022-07-25T20:25:23.047Z,4.95
2022-07-25T20:27:50.322Z,4.45
2022-07-25T20:30:18.211Z,4.35
2022-07-25T20:32:45.523Z,4.00
2022-07-25T20:35:12.579Z,4.40
2022-07-25T20:37:39.846Z,4.05
2022-07-25T20:40:08.601Z,4.10
2022-07-25T20:42:36.880Z,4.32
2022-07-25T20:45:05.921Z,4.35
2022-07-25T20:47:34.215Z,4.55
2022-07-25T20:50:02.199Z,4.20
2022-07-25T20:52:30.432Z,3.83
2022-07-25T20:54:57.862Z,4.15
2022-07-25T20:57:25.018Z,3.83
2022-07-25T20:59:52.174Z,4.22
2022-07-25T21:02:19.425Z,4.97
2022-07-25T21:04:48.704Z,3.75
2022-07-25T21:07:18.730Z,3.47
2022-07-25T21:09:45.966Z,3.92
2022-07-25T21:12:13.170Z,3.70
2022-07-25T21:14:40.245Z,4.00
2022-07-25T21:17:08.685Z,4.25
2022-07-25T21:19:35.735Z,4.35
2022-07-25T21:22:03.094Z,4.07
2022-07-25T21:24:30.489Z,4.03
2022-07-25T21:26:57.614Z,3.75
2022-07-25T21:29:24.728Z,3.53
2022-07-25T21:31:51.906Z,3.67
2022-07-25T21:34:21.814Z,3.90
2022-07-25T21:36:48.810Z,4.22
2022-07-25T21:39:16.810Z,4.07
2022-07-25T21:41:44.945Z,3.45
2022-07-25T21:44:13.804Z,4.00
2022-07-25T21:46:40.969Z,3.90
2022-07-25T21:49:41.878Z,4.18
2022-07-25T21:52:13.665Z,3.95
2022-07-25T21:54:42.248Z,4.32
2022-07-25T21:57:13.354Z,4.50
2022-07-25T21:59:45.093Z,3.50
2022-07-25T22:02:13.123Z,3.90
2022-07-25T22:04:40.752Z,4.18
2022-07-25T22:07:08.684Z,4.38
2022-07-25T22:09:36.164Z,4.03
2022-07-25T22:12:03.372Z,3.45
2022-07-25T22:14:30.449Z,4.43
2022-07-25T22:16:57.620Z,4.35
2022-07-25T22:19:24.969Z,3.90
2022-07-25T22:21:52.361Z,4.22
2022-07-25T22:24:19.481Z,4.40
2022-07-25T22:26:46.602Z,3.85
2022-07-25T22:29:13.686Z,3.97
2022-07-25T22:31:41.019Z,3.25
2022-07-25T22:34:08.776Z,4.40
2022-07-25T22:36:36.050Z,3.78
2022-07-25T22:39:03.139Z,3.42
2022-07-25T22:41:30.144Z,3.50
2022-07-25T22:43:59.690Z,3.10
2022-07-25T22:46:29.082Z,3.28
2022-07-25T22:48:57.402Z,3.28
2022-07-25T22:51:25.003Z,3.17
2022-07-25T22:53:52.288Z,3.25
2022-07-25T22:56:19.843Z,3.00
2022-07-25T22:58:49.052Z,3.60
2022-07-25T23:01:20.127Z,2.97
2022-07-25T23:03:50.157Z,2.90
2022-07-25T23:06:19.466Z,2.95
2022-07-25T23:08:50.071Z,3.13
2022-07-25T23:11:17.506Z,2.80
2022-07-25T23:13:44.627Z,2.65
2022-07-25T23:16:12.097Z,2.28
2022-07-25T23:18:39.506Z,2.28
2022-07-25T23:21:07.386Z,2.45
2022-07-25T23:23:34.707Z,2.90
2022-07-25T23:26:02.596Z,2.35
2022-07-25T23:28:30.114Z,2.60
2022-07-25T23:30:57.225Z,2.85
2022-07-25T23:33:25.557Z,2.38
2022-07-25T23:35:54.083Z,2.38
2022-07-25T23:38:21.867Z,2.70
2022-07-25T23:40:49.440Z,2.90
2022-07-25T23:43:18.902Z,2.67
2022-07-25T23:46:03.766Z,2.65
2022-07-25T23:48:30.834Z,2.83
2022-07-25T23:50:57.870Z,2.72
2022-07-25T23:53:24.882Z,2.67
2022-07-25T23:55:51.881Z,2.30
2022-07-25T23:58:18.887Z,2.50
